GMTA/AHU METAR and TAF weather

Enter ICAO airport designator
Station Type Date Time Source
GMTA METAR 2021/10/22 20:00 UTC NOAA

GMTA 222000Z VRB01KT 9999 BKN040 20/15 Q1017 NOSIG


Station Type Date Time Source
GMTA Decoded METAR 2021/10/22 20:00 UTC NOAA

Al Hoceima, Morocco (GMTA) 35-11N 003-51W 14M
Oct 22, 2021 - 04:00 PM EDT / 2021.10.22 2000 UTC
Wind: Variable at 1 MPH (1 KT):0
Visibility: greater than 7 mile(s):0
Sky conditions: mostly cloudy
Temperature: 68 F (20 C)
Dew Point: 59 F (15 C)
Relative Humidity: 72%
Pressure (altimeter): 30.03 in. Hg (1017 hPa)
ob: GMTA 222000Z VRB01KT 9999 BKN040 20/15 Q1017 NOSIG
cycle: 20

Station Type Date Time Source
GMTA TAF 2021/10/22 18:18 UTC NOAA

TAF GMTA 221700Z 2218/2324 35006KT 9999 SCT031 SCT090

Example: see airport list